sensor_id;sensor_type;location;lat;lon;timestamp;P1;durP1;ratioP1;P2;durP2;ratioP2
36379;SDS011;22411;53.016;18.632;2024-03-25T00:00:39;11.77;;;8.07;;
36379;SDS011;22411;53.016;18.632;2024-03-25T00:03:25;13.13;;;7.18;;
36379;SDS011;22411;53.016;18.632;2024-03-25T00:05:50;11.50;;;7.55;;
36379;SDS011;22411;53.016;18.632;2024-03-25T00:08:16;11.57;;;7.55;;
36379;SDS011;22411;53.016;18.632;2024-03-25T00:10:42;14.90;;;8.18;;
36379;SDS011;22411;53.016;18.632;2024-03-25T00:13:08;13.90;;;8.52;;
36379;SDS011;22411;53.016;18.632;2024-03-25T00:15:35;10.93;;;6.93;;
36379;SDS011;22411;53.016;18.632;2024-03-25T00:18:03;11.48;;;7.13;;
36379;SDS011;22411;53.016;18.632;2024-03-25T00:20:29;14.90;;;7.25;;
36379;SDS011;22411;53.016;18.632;2024-03-25T00:22:55;12.38;;;7.40;;
36379;SDS011;22411;53.016;18.632;2024-03-25T00:25:21;9.55;;;7.00;;
36379;SDS011;22411;53.016;18.632;2024-03-25T00:27:47;11.40;;;6.50;;
36379;SDS011;22411;53.016;18.632;2024-03-25T00:30:13;15.05;;;7.63;;
36379;SDS011;22411;53.016;18.632;2024-03-25T00:32:39;12.98;;;7.80;;
36379;SDS011;22411;53.016;18.632;2024-03-25T00:35:05;11.52;;;7.28;;
36379;SDS011;22411;53.016;18.632;2024-03-25T00:37:31;13.02;;;8.00;;
36379;SDS011;22411;53.016;18.632;2024-03-25T00:39:57;13.55;;;7.90;;
36379;SDS011;22411;53.016;18.632;2024-03-25T00:42:23;12.48;;;7.68;;
36379;SDS011;22411;53.016;18.632;2024-03-25T00:44:48;14.15;;;8.38;;
36379;SDS011;22411;53.016;18.632;2024-03-25T00:47:14;11.35;;;7.43;;
36379;SDS011;22411;53.016;18.632;2024-03-25T00:49:40;13.85;;;9.75;;
36379;SDS011;22411;53.016;18.632;2024-03-25T00:52:06;12.00;;;7.97;;
36379;SDS011;22411;53.016;18.632;2024-03-25T00:54:31;11.50;;;7.47;;
36379;SDS011;22411;53.016;18.632;2024-03-25T00:56:58;13.77;;;8.48;;
36379;SDS011;22411;53.016;18.632;2024-03-25T00:59:24;13.88;;;9.00;;
36379;SDS011;22411;53.016;18.632;2024-03-25T01:01:50;14.93;;;8.38;;
36379;SDS011;22411;53.016;18.632;2024-03-25T01:04:15;14.88;;;9.73;;
36379;SDS011;22411;53.016;18.632;2024-03-25T01:06:41;16.10;;;9.15;;
36379;SDS011;22411;53.016;18.632;2024-03-25T01:09:07;19.83;;;9.48;;
36379;SDS011;22411;53.016;18.632;2024-03-25T01:11:33;15.20;;;9.82;;
36379;SDS011;22411;53.016;18.632;2024-03-25T01:13:59;20.13;;;11.60;;
36379;SDS011;22411;53.016;18.632;2024-03-25T01:16:25;18.00;;;10.38;;
36379;SDS011;22411;53.016;18.632;2024-03-25T01:18:51;18.05;;;11.55;;
36379;SDS011;22411;53.016;18.632;2024-03-25T01:21:16;19.48;;;12.88;;
36379;SDS011;22411;53.016;18.632;2024-03-25T01:23:42;20.15;;;11.88;;
36379;SDS011;22411;53.016;18.632;2024-03-25T01:26:08;19.40;;;12.05;;
36379;SDS011;22411;53.016;18.632;2024-03-25T01:28:33;19.60;;;10.98;;
36379;SDS011;22411;53.016;18.632;2024-03-25T01:31:00;22.98;;;13.43;;
36379;SDS011;22411;53.016;18.632;2024-03-25T01:33:25;21.27;;;14.15;;
36379;SDS011;22411;53.016;18.632;2024-03-25T01:35:51;20.48;;;12.27;;
36379;SDS011;22411;53.016;18.632;2024-03-25T01:38:17;21.52;;;13.02;;
36379;SDS011;22411;53.016;18.632;2024-03-25T01:40:43;22.45;;;14.13;;
36379;SDS011;22411;53.016;18.632;2024-03-25T01:43:10;26.40;;;15.77;;
36379;SDS011;22411;53.016;18.632;2024-03-25T01:45:36;23.35;;;13.05;;
36379;SDS011;22411;53.016;18.632;2024-03-25T01:48:02;26.10;;;15.15;;
36379;SDS011;22411;53.016;18.632;2024-03-25T01:50:34;21.38;;;14.07;;
36379;SDS011;22411;53.016;18.632;2024-03-25T01:53:06;26.20;;;14.13;;
36379;SDS011;22411;53.016;18.632;2024-03-25T01:55:32;27.10;;;15.07;;
36379;SDS011;22411;53.016;18.632;2024-03-25T01:58:00;23.40;;;14.52;;
36379;SDS011;22411;53.016;18.632;2024-03-25T02:00:27;24.95;;;14.27;;
36379;SDS011;22411;53.016;18.632;2024-03-25T02:02:53;24.58;;;14.70;;
36379;SDS011;22411;53.016;18.632;2024-03-25T02:05:20;25.67;;;15.18;;
36379;SDS011;22411;53.016;18.632;2024-03-25T02:07:46;27.98;;;15.27;;
36379;SDS011;22411;53.016;18.632;2024-03-25T02:10:15;26.95;;;15.13;;
36379;SDS011;22411;53.016;18.632;2024-03-25T02:12:44;21.55;;;13.40;;
36379;SDS011;22411;53.016;18.632;2024-03-25T02:15:12;24.80;;;15.55;;
36379;SDS011;22411;53.016;18.632;2024-03-25T02:17:38;23.33;;;14.80;;
36379;SDS011;22411;53.016;18.632;2024-03-25T02:20:05;23.48;;;13.80;;
36379;SDS011;22411;53.016;18.632;2024-03-25T02:22:33;21.27;;;13.50;;
36379;SDS011;22411;53.016;18.632;2024-03-25T02:25:00;24.55;;;13.77;;
36379;SDS011;22411;53.016;18.632;2024-03-25T02:27:27;20.95;;;12.82;;
36379;SDS011;22411;53.016;18.632;2024-03-25T02:29:54;21.73;;;13.80;;
36379;SDS011;22411;53.016;18.632;2024-03-25T02:32:20;23.92;;;13.77;;
36379;SDS011;22411;53.016;18.632;2024-03-25T02:35:07;21.13;;;12.98;;
36379;SDS011;22411;53.016;18.632;2024-03-25T02:37:35;20.80;;;11.93;;
36379;SDS011;22411;53.016;18.632;2024-03-25T02:40:02;20.98;;;12.82;;
36379;SDS011;22411;53.016;18.632;2024-03-25T02:42:31;23.45;;;13.68;;
36379;SDS011;22411;53.016;18.632;2024-03-25T02:44:57;18.52;;;11.93;;
36379;SDS011;22411;53.016;18.632;2024-03-25T02:47:24;20.75;;;12.18;;
36379;SDS011;22411;53.016;18.632;2024-03-25T02:49:50;20.95;;;12.55;;
36379;SDS011;22411;53.016;18.632;2024-03-25T02:52:16;20.58;;;13.68;;
36379;SDS011;22411;53.016;18.632;2024-03-25T02:54:43;20.05;;;11.70;;
36379;SDS011;22411;53.016;18.632;2024-03-25T02:57:09;26.60;;;13.20;;
36379;SDS011;22411;53.016;18.632;2024-03-25T02:59:35;21.38;;;13.65;;
36379;SDS011;22411;53.016;18.632;2024-03-25T03:02:00;22.80;;;13.00;;
36379;SDS011;22411;53.016;18.632;2024-03-25T03:04:26;20.70;;;12.95;;
36379;SDS011;22411;53.016;18.632;2024-03-25T03:06:52;21.08;;;12.48;;
36379;SDS011;22411;53.016;18.632;2024-03-25T03:09:17;21.35;;;13.23;;
36379;SDS011;22411;53.016;18.632;2024-03-25T03:11:43;20.45;;;13.25;;
36379;SDS011;22411;53.016;18.632;2024-03-25T03:14:09;20.80;;;13.27;;
36379;SDS011;22411;53.016;18.632;2024-03-25T03:16:35;18.88;;;11.68;;
36379;SDS011;22411;53.016;18.632;2024-03-25T03:19:01;20.95;;;12.23;;
36379;SDS011;22411;53.016;18.632;2024-03-25T03:21:26;21.35;;;12.15;;
36379;SDS011;22411;53.016;18.632;2024-03-25T03:23:53;20.77;;;12.93;;
36379;SDS011;22411;53.016;18.632;2024-03-25T03:26:18;24.65;;;11.57;;
36379;SDS011;22411;53.016;18.632;2024-03-25T03:28:44;18.92;;;11.93;;
36379;SDS011;22411;53.016;18.632;2024-03-25T03:31:10;19.77;;;11.35;;
36379;SDS011;22411;53.016;18.632;2024-03-25T03:33:36;21.92;;;14.18;;
36379;SDS011;22411;53.016;18.632;2024-03-25T03:36:01;18.35;;;12.05;;
36379;SDS011;22411;53.016;18.632;2024-03-25T03:38:27;20.55;;;13.77;;
36379;SDS011;22411;53.016;18.632;2024-03-25T03:40:59;16.60;;;10.98;;
36379;SDS011;22411;53.016;18.632;2024-03-25T03:43:26;17.10;;;11.05;;
36379;SDS011;22411;53.016;18.632;2024-03-25T03:45:51;20.02;;;11.77;;
36379;SDS011;22411;53.016;18.632;2024-03-25T03:48:17;17.70;;;11.95;;
36379;SDS011;22411;53.016;18.632;2024-03-25T03:50:43;22.48;;;11.90;;
36379;SDS011;22411;53.016;18.632;2024-03-25T03:53:09;20.05;;;13.05;;
36379;SDS011;22411;53.016;18.632;2024-03-25T03:55:35;25.90;;;13.27;;
36379;SDS011;22411;53.016;18.632;2024-03-25T03:58:01;20.73;;;13.25;;
36379;SDS011;22411;53.016;18.632;2024-03-25T04:00:27;22.08;;;12.90;;
36379;SDS011;22411;53.016;18.632;2024-03-25T04:02:53;18.98;;;11.40;;
36379;SDS011;22411;53.016;18.632;2024-03-25T04:05:18;23.23;;;13.60;;
36379;SDS011;22411;53.016;18.632;2024-03-25T04:07:45;21.10;;;12.65;;
36379;SDS011;22411;53.016;18.632;2024-03-25T04:10:10;19.60;;;12.88;;
36379;SDS011;22411;53.016;18.632;2024-03-25T04:12:36;21.63;;;12.25;;
36379;SDS011;22411;53.016;18.632;2024-03-25T04:15:02;17.40;;;10.85;;
36379;SDS011;22411;53.016;18.632;2024-03-25T04:17:29;17.38;;;10.85;;
36379;SDS011;22411;53.016;18.632;2024-03-25T04:19:54;18.67;;;11.50;;
36379;SDS011;22411;53.016;18.632;2024-03-25T04:22:20;21.65;;;12.35;;
36379;SDS011;22411;53.016;18.632;2024-03-25T04:24:46;21.23;;;12.93;;
36379;SDS011;22411;53.016;18.632;2024-03-25T04:27:12;20.23;;;11.48;;
36379;SDS011;22411;53.016;18.632;2024-03-25T04:29:38;18.83;;;11.57;;
36379;SDS011;22411;53.016;18.632;2024-03-25T04:32:04;16.98;;;11.25;;
36379;SDS011;22411;53.016;18.632;2024-03-25T04:34:29;20.50;;;12.10;;
36379;SDS011;22411;53.016;18.632;2024-03-25T04:36:55;18.15;;;10.65;;
36379;SDS011;22411;53.016;18.632;2024-03-25T04:39:21;18.27;;;11.85;;
36379;SDS011;22411;53.016;18.632;2024-03-25T04:41:47;18.67;;;10.80;;
36379;SDS011;22411;53.016;18.632;2024-03-25T04:44:13;18.92;;;10.38;;
36379;SDS011;22411;53.016;18.632;2024-03-25T04:46:39;16.58;;;9.93;;
36379;SDS011;22411;53.016;18.632;2024-03-25T04:49:05;15.93;;;9.90;;
36379;SDS011;22411;53.016;18.632;2024-03-25T04:51:31;18.92;;;11.40;;
36379;SDS011;22411;53.016;18.632;2024-03-25T04:53:57;16.27;;;10.43;;
36379;SDS011;22411;53.016;18.632;2024-03-25T04:56:23;18.98;;;10.80;;
36379;SDS011;22411;53.016;18.632;2024-03-25T04:58:49;17.40;;;10.77;;
36379;SDS011;22411;53.016;18.632;2024-03-25T05:01:14;17.00;;;9.63;;
36379;SDS011;22411;53.016;18.632;2024-03-25T05:03:40;12.10;;;7.25;;
36379;SDS011;22411;53.016;18.632;2024-03-25T05:06:06;13.07;;;7.63;;
36379;SDS011;22411;53.016;18.632;2024-03-25T05:08:34;15.95;;;9.52;;
36379;SDS011;22411;53.016;18.632;2024-03-25T05:11:00;14.93;;;8.13;;
36379;SDS011;22411;53.016;18.632;2024-03-25T05:13:26;14.90;;;8.73;;
36379;SDS011;22411;53.016;18.632;2024-03-25T05:15:52;14.13;;;7.97;;
36379;SDS011;22411;53.016;18.632;2024-03-25T05:18:18;13.70;;;8.82;;
36379;SDS011;22411;53.016;18.632;2024-03-25T05:20:44;16.48;;;9.63;;
36379;SDS011;22411;53.016;18.632;2024-03-25T05:23:10;16.95;;;9.55;;
36379;SDS011;22411;53.016;18.632;2024-03-25T05:25:36;16.42;;;10.07;;
36379;SDS011;22411;53.016;18.632;2024-03-25T05:28:04;17.52;;;11.65;;
36379;SDS011;22411;53.016;18.632;2024-03-25T05:30:30;12.98;;;9.35;;
36379;SDS011;22411;53.016;18.632;2024-03-25T05:32:55;17.10;;;11.13;;
36379;SDS011;22411;53.016;18.632;2024-03-25T05:35:21;16.30;;;10.35;;
36379;SDS011;22411;53.016;18.632;2024-03-25T05:37:47;16.55;;;9.18;;
36379;SDS011;22411;53.016;18.632;2024-03-25T05:40:13;11.75;;;9.07;;
36379;SDS011;22411;53.016;18.632;2024-03-25T05:42:40;14.18;;;9.57;;
36379;SDS011;22411;53.016;18.632;2024-03-25T05:45:06;12.93;;;9.00;;
36379;SDS011;22411;53.016;18.632;2024-03-25T05:47:34;15.93;;;8.77;;
36379;SDS011;22411;53.016;18.632;2024-03-25T05:50:00;11.75;;;7.63;;
36379;SDS011;22411;53.016;18.632;2024-03-25T05:52:28;12.30;;;8.55;;
36379;SDS011;22411;53.016;18.632;2024-03-25T05:54:54;12.18;;;6.82;;
36379;SDS011;22411;53.016;18.632;2024-03-25T05:57:19;12.25;;;7.85;;
36379;SDS011;22411;53.016;18.632;2024-03-25T05:59:46;13.52;;;7.63;;
36379;SDS011;22411;53.016;18.632;2024-03-25T06:02:11;14.25;;;8.07;;
36379;SDS011;22411;53.016;18.632;2024-03-25T06:04:37;13.00;;;8.30;;
36379;SDS011;22411;53.016;18.632;2024-03-25T06:07:03;16.65;;;8.48;;
36379;SDS011;22411;53.016;18.632;2024-03-25T06:09:29;14.82;;;7.85;;
36379;SDS011;22411;53.016;18.632;2024-03-25T06:11:54;10.38;;;7.15;;
36379;SDS011;22411;53.016;18.632;2024-03-25T06:14:20;11.75;;;8.50;;
36379;SDS011;22411;53.016;18.632;2024-03-25T06:16:46;25.98;;;16.85;;
36379;SDS011;22411;53.016;18.632;2024-03-25T06:19:12;17.60;;;10.90;;
36379;SDS011;22411;53.016;18.632;2024-03-25T06:21:38;14.15;;;9.25;;
36379;SDS011;22411;53.016;18.632;2024-03-25T06:24:04;13.75;;;8.50;;
36379;SDS011;22411;53.016;18.632;2024-03-25T06:26:29;12.95;;;8.30;;
36379;SDS011;22411;53.016;18.632;2024-03-25T06:28:55;14.73;;;8.27;;
36379;SDS011;22411;53.016;18.632;2024-03-25T06:31:21;12.13;;;7.90;;
36379;SDS011;22411;53.016;18.632;2024-03-25T06:34:05;13.25;;;7.28;;
36379;SDS011;22411;53.016;18.632;2024-03-25T06:36:40;18.38;;;10.05;;
36379;SDS011;22411;53.016;18.632;2024-03-25T06:39:06;13.43;;;7.47;;
36379;SDS011;22411;53.016;18.632;2024-03-25T06:41:32;13.10;;;7.38;;
36379;SDS011;22411;53.016;18.632;2024-03-25T06:43:58;12.32;;;7.40;;
36379;SDS011;22411;53.016;18.632;2024-03-25T06:46:23;13.57;;;8.95;;
36379;SDS011;22411;53.016;18.632;2024-03-25T06:48:49;11.52;;;7.35;;
36379;SDS011;22411;53.016;18.632;2024-03-25T06:51:17;8.30;;;6.15;;
36379;SDS011;22411;53.016;18.632;2024-03-25T06:53:44;13.85;;;7.90;;
36379;SDS011;22411;53.016;18.632;2024-03-25T06:56:09;17.17;;;7.13;;
36379;SDS011;22411;53.016;18.632;2024-03-25T06:58:36;13.00;;;7.10;;
36379;SDS011;22411;53.016;18.632;2024-03-25T07:01:05;8.75;;;6.28;;
36379;SDS011;22411;53.016;18.632;2024-03-25T07:03:35;13.32;;;6.70;;
36379;SDS011;22411;53.016;18.632;2024-03-25T07:06:01;22.40;;;11.75;;
36379;SDS011;22411;53.016;18.632;2024-03-25T07:08:27;15.13;;;9.82;;
36379;SDS011;22411;53.016;18.632;2024-03-25T07:10:54;14.45;;;8.77;;
36379;SDS011;22411;53.016;18.632;2024-03-25T07:13:20;14.15;;;7.07;;
36379;SDS011;22411;53.016;18.632;2024-03-25T07:15:45;10.85;;;6.72;;
36379;SDS011;22411;53.016;18.632;2024-03-25T07:18:12;11.38;;;7.82;;
36379;SDS011;22411;53.016;18.632;2024-03-25T07:20:41;15.55;;;11.40;;
36379;SDS011;22411;53.016;18.632;2024-03-25T07:23:08;12.25;;;8.05;;
36379;SDS011;22411;53.016;18.632;2024-03-25T07:25:34;11.50;;;8.18;;
36379;SDS011;22411;53.016;18.632;2024-03-25T07:28:01;10.57;;;7.25;;
36379;SDS011;22411;53.016;18.632;2024-03-25T07:30:27;16.30;;;11.13;;
36379;SDS011;22411;53.016;18.632;2024-03-25T07:32:54;17.10;;;12.45;;
36379;SDS011;22411;53.016;18.632;2024-03-25T07:35:20;12.38;;;7.60;;
36379;SDS011;22411;53.016;18.632;2024-03-25T07:37:46;10.30;;;7.10;;
36379;SDS011;22411;53.016;18.632;2024-03-25T07:40:12;12.68;;;9.45;;
36379;SDS011;22411;53.016;18.632;2024-03-25T07:42:38;18.67;;;13.65;;
36379;SDS011;22411;53.016;18.632;2024-03-25T07:45:04;14.35;;;10.80;;
36379;SDS011;22411;53.016;18.632;2024-03-25T07:47:31;12.23;;;7.65;;
36379;SDS011;22411;53.016;18.632;2024-03-25T07:49:58;12.18;;;7.32;;
36379;SDS011;22411;53.016;18.632;2024-03-25T07:52:25;11.45;;;8.55;;
36379;SDS011;22411;53.016;18.632;2024-03-25T07:54:51;13.35;;;9.45;;
36379;SDS011;22411;53.016;18.632;2024-03-25T07:57:17;21.60;;;14.45;;
36379;SDS011;22411;53.016;18.632;2024-03-25T07:59:43;22.23;;;16.98;;
36379;SDS011;22411;53.016;18.632;2024-03-25T08:02:09;18.95;;;14.15;;
36379;SDS011;22411;53.016;18.632;2024-03-25T08:04:34;18.13;;;12.55;;
36379;SDS011;22411;53.016;18.632;2024-03-25T08:07:00;25.10;;;18.88;;
36379;SDS011;22411;53.016;18.632;2024-03-25T08:09:25;17.52;;;11.40;;
36379;SDS011;22411;53.016;18.632;2024-03-25T08:11:51;24.35;;;18.55;;
36379;SDS011;22411;53.016;18.632;2024-03-25T08:14:17;24.83;;;19.25;;
36379;SDS011;22411;53.016;18.632;2024-03-25T08:16:43;18.33;;;14.32;;
36379;SDS011;22411;53.016;18.632;2024-03-25T08:19:08;20.25;;;16.08;;
36379;SDS011;22411;53.016;18.632;2024-03-25T08:21:34;15.32;;;10.57;;
36379;SDS011;22411;53.016;18.632;2024-03-25T08:24:00;20.33;;;13.43;;
36379;SDS011;22411;53.016;18.632;2024-03-25T08:26:26;28.38;;;19.98;;
36379;SDS011;22411;53.016;18.632;2024-03-25T08:28:51;19.17;;;13.57;;
36379;SDS011;22411;53.016;18.632;2024-03-25T08:31:17;20.55;;;14.88;;
36379;SDS011;22411;53.016;18.632;2024-03-25T08:33:43;22.83;;;17.10;;
36379;SDS011;22411;53.016;18.632;2024-03-25T08:36:09;24.13;;;18.20;;
36379;SDS011;22411;53.016;18.632;2024-03-25T08:38:34;21.95;;;14.93;;
36379;SDS011;22411;53.016;18.632;2024-03-25T08:41:00;15.88;;;10.98;;
36379;SDS011;22411;53.016;18.632;2024-03-25T08:43:26;17.35;;;11.23;;
36379;SDS011;22411;53.016;18.632;2024-03-25T08:45:52;15.52;;;11.38;;
36379;SDS011;22411;53.016;18.632;2024-03-25T08:48:18;12.82;;;10.25;;
36379;SDS011;22411;53.016;18.632;2024-03-25T08:50:43;16.10;;;11.20;;
36379;SDS011;22411;53.016;18.632;2024-03-25T08:53:09;11.75;;;9.18;;
36379;SDS011;22411;53.016;18.632;2024-03-25T08:55:35;17.20;;;13.20;;
36379;SDS011;22411;53.016;18.632;2024-03-25T08:58:00;10.38;;;8.35;;
36379;SDS011;22411;53.016;18.632;2024-03-25T09:00:27;14.07;;;11.00;;
36379;SDS011;22411;53.016;18.632;2024-03-25T09:02:55;13.40;;;9.95;;
36379;SDS011;22411;53.016;18.632;2024-03-25T09:05:21;10.85;;;8.00;;
36379;SDS011;22411;53.016;18.632;2024-03-25T09:07:51;13.80;;;9.35;;
36379;SDS011;22411;53.016;18.632;2024-03-25T09:10:17;17.80;;;13.35;;
36379;SDS011;22411;53.016;18.632;2024-03-25T09:13:02;12.20;;;9.43;;
36379;SDS011;22411;53.016;18.632;2024-03-25T09:15:29;13.50;;;9.15;;
36379;SDS011;22411;53.016;18.632;2024-03-25T09:17:55;10.07;;;7.78;;
36379;SDS011;22411;53.016;18.632;2024-03-25T09:20:21;11.43;;;8.13;;
36379;SDS011;22411;53.016;18.632;2024-03-25T09:22:47;10.43;;;7.60;;
36379;SDS011;22411;53.016;18.632;2024-03-25T09:25:14;9.05;;;6.93;;
36379;SDS011;22411;53.016;18.632;2024-03-25T09:27:40;11.60;;;8.20;;
36379;SDS011;22411;53.016;18.632;2024-03-25T09:30:06;15.43;;;9.75;;
36379;SDS011;22411;53.016;18.632;2024-03-25T09:32:35;16.88;;;10.00;;
36379;SDS011;22411;53.016;18.632;2024-03-25T09:35:01;12.38;;;8.95;;
36379;SDS011;22411;53.016;18.632;2024-03-25T09:37:26;16.40;;;11.10;;
36379;SDS011;22411;53.016;18.632;2024-03-25T09:39:52;20.83;;;14.45;;
36379;SDS011;22411;53.016;18.632;2024-03-25T09:42:20;16.13;;;11.82;;
36379;SDS011;22411;53.016;18.632;2024-03-25T09:44:54;11.48;;;7.75;;
36379;SDS011;22411;53.016;18.632;2024-03-25T09:47:21;16.30;;;11.35;;
36379;SDS011;22411;53.016;18.632;2024-03-25T09:49:47;22.65;;;16.80;;
36379;SDS011;22411;53.016;18.632;2024-03-25T09:52:16;19.70;;;16.42;;
36379;SDS011;22411;53.016;18.632;2024-03-25T09:54:43;20.98;;;15.48;;
36379;SDS011;22411;53.016;18.632;2024-03-25T09:57:09;26.48;;;17.55;;
36379;SDS011;22411;53.016;18.632;2024-03-25T09:59:35;15.95;;;11.20;;
36379;SDS011;22411;53.016;18.632;2024-03-25T10:02:01;16.10;;;11.25;;
36379;SDS011;22411;53.016;18.632;2024-03-25T10:04:29;24.80;;;17.77;;
36379;SDS011;22411;53.016;18.632;2024-03-25T10:06:55;17.15;;;11.57;;
36379;SDS011;22411;53.016;18.632;2024-03-25T10:09:21;26.20;;;18.80;;
36379;SDS011;22411;53.016;18.632;2024-03-25T10:11:50;82.22;;;73.30;;
36379;SDS011;22411;53.016;18.632;2024-03-25T10:14:16;25.75;;;20.52;;
36379;SDS011;22411;53.016;18.632;2024-03-25T10:16:42;13.88;;;10.75;;
36379;SDS011;22411;53.016;18.632;2024-03-25T10:19:09;43.08;;;35.97;;
36379;SDS011;22411;53.016;18.632;2024-03-25T10:21:35;27.48;;;20.77;;
36379;SDS011;22411;53.016;18.632;2024-03-25T10:24:01;29.08;;;23.30;;
36379;SDS011;22411;53.016;18.632;2024-03-25T10:26:30;19.98;;;14.57;;
36379;SDS011;22411;53.016;18.632;2024-03-25T10:29:06;35.90;;;26.25;;
36379;SDS011;22411;53.016;18.632;2024-03-25T10:31:33;13.43;;;9.75;;
36379;SDS011;22411;53.016;18.632;2024-03-25T10:33:59;15.32;;;12.45;;
36379;SDS011;22411;53.016;18.632;2024-03-25T10:36:25;18.52;;;13.43;;
36379;SDS011;22411;53.016;18.632;2024-03-25T10:38:53;14.27;;;10.25;;
36379;SDS011;22411;53.016;18.632;2024-03-25T10:41:20;16.83;;;11.32;;
36379;SDS011;22411;53.016;18.632;2024-03-25T10:43:48;33.97;;;26.55;;
36379;SDS011;22411;53.016;18.632;2024-03-25T10:46:17;126.97;;;104.95;;
36379;SDS011;22411;53.016;18.632;2024-03-25T10:48:49;106.07;;;87.38;;
36379;SDS011;22411;53.016;18.632;2024-03-25T10:51:24;130.60;;;100.32;;
36379;SDS011;22411;53.016;18.632;2024-03-25T10:53:52;177.75;;;130.88;;
36379;SDS011;22411;53.016;18.632;2024-03-25T10:56:22;126.13;;;113.18;;
36379;SDS011;22411;53.016;18.632;2024-03-25T10:58:48;40.55;;;35.03;;
36379;SDS011;22411;53.016;18.632;2024-03-25T11:01:15;25.73;;;20.05;;
36379;SDS011;22411;53.016;18.632;2024-03-25T11:03:42;24.42;;;19.73;;
36379;SDS011;22411;53.016;18.632;2024-03-25T11:06:09;57.97;;;51.97;;
36379;SDS011;22411;53.016;18.632;2024-03-25T11:08:35;33.10;;;29.80;;
36379;SDS011;22411;53.016;18.632;2024-03-25T11:11:01;36.47;;;32.88;;
36379;SDS011;22411;53.016;18.632;2024-03-25T11:13:27;28.92;;;25.02;;
36379;SDS011;22411;53.016;18.632;2024-03-25T11:15:53;10.25;;;9.00;;
36379;SDS011;22411;53.016;18.632;2024-03-25T11:18:22;13.55;;;12.15;;
36379;SDS011;22411;53.016;18.632;2024-03-25T11:20:59;19.27;;;17.25;;
36379;SDS011;22411;53.016;18.632;2024-03-25T11:23:37;10.55;;;8.43;;
36379;SDS011;22411;53.016;18.632;2024-03-25T11:26:04;14.27;;;9.95;;
36379;SDS011;22411;53.016;18.632;2024-03-25T11:28:30;14.55;;;9.00;;
36379;SDS011;22411;53.016;18.632;2024-03-25T11:30:55;12.68;;;7.90;;
36379;SDS011;22411;53.016;18.632;2024-03-25T11:33:22;10.65;;;7.38;;
36379;SDS011;22411;53.016;18.632;2024-03-25T11:35:50;11.60;;;7.20;;
36379;SDS011;22411;53.016;18.632;2024-03-25T11:38:16;21.10;;;14.77;;
36379;SDS011;22411;53.016;18.632;2024-03-25T11:40:44;16.13;;;10.23;;
36379;SDS011;22411;53.016;18.632;2024-03-25T11:43:17;10.57;;;7.88;;
36379;SDS011;22411;53.016;18.632;2024-03-25T11:45:46;8.68;;;7.05;;
36379;SDS011;22411;53.016;18.632;2024-03-25T11:48:13;8.27;;;4.88;;
36379;SDS011;22411;53.016;18.632;2024-03-25T11:50:48;7.13;;;4.93;;
36379;SDS011;22411;53.016;18.632;2024-03-25T11:53:14;6.88;;;4.28;;
36379;SDS011;22411;53.016;18.632;2024-03-25T11:55:40;6.55;;;5.10;;
36379;SDS011;22411;53.016;18.632;2024-03-25T11:58:07;7.78;;;4.70;;
36379;SDS011;22411;53.016;18.632;2024-03-25T12:00:33;4.88;;;3.63;;
36379;SDS011;22411;53.016;18.632;2024-03-25T12:02:59;4.72;;;3.75;;
36379;SDS011;22411;53.016;18.632;2024-03-25T12:05:26;6.07;;;4.22;;
36379;SDS011;22411;53.016;18.632;2024-03-25T12:07:51;7.55;;;5.03;;
36379;SDS011;22411;53.016;18.632;2024-03-25T12:10:17;7.15;;;4.22;;
36379;SDS011;22411;53.016;18.632;2024-03-25T12:13:01;7.30;;;4.72;;
36379;SDS011;22411;53.016;18.632;2024-03-25T12:15:27;9.60;;;5.22;;
36379;SDS011;22411;53.016;18.632;2024-03-25T12:17:53;7.22;;;5.65;;
36379;SDS011;22411;53.016;18.632;2024-03-25T12:20:20;5.95;;;4.35;;
36379;SDS011;22411;53.016;18.632;2024-03-25T12:22:46;6.40;;;4.75;;
36379;SDS011;22411;53.016;18.632;2024-03-25T12:25:11;6.97;;;5.10;;
36379;SDS011;22411;53.016;18.632;2024-03-25T12:27:37;7.13;;;4.72;;
36379;SDS011;22411;53.016;18.632;2024-03-25T12:30:05;10.07;;;6.10;;
36379;SDS011;22411;53.016;18.632;2024-03-25T12:32:38;7.20;;;5.50;;
36379;SDS011;22411;53.016;18.632;2024-03-25T12:35:08;7.90;;;6.72;;
36379;SDS011;22411;53.016;18.632;2024-03-25T12:37:38;7.47;;;5.97;;
36379;SDS011;22411;53.016;18.632;2024-03-25T12:40:06;9.18;;;5.85;;
36379;SDS011;22411;53.016;18.632;2024-03-25T12:42:33;7.47;;;5.88;;
36379;SDS011;22411;53.016;18.632;2024-03-25T12:44:59;14.27;;;5.00;;
36379;SDS011;22411;53.016;18.632;2024-03-25T12:47:25;7.63;;;5.05;;
36379;SDS011;22411;53.016;18.632;2024-03-25T12:49:51;7.57;;;5.28;;
36379;SDS011;22411;53.016;18.632;2024-03-25T12:52:17;8.32;;;6.78;;
36379;SDS011;22411;53.016;18.632;2024-03-25T12:54:43;6.70;;;5.05;;
36379;SDS011;22411;53.016;18.632;2024-03-25T12:57:09;6.07;;;4.50;;
36379;SDS011;22411;53.016;18.632;2024-03-25T12:59:36;5.47;;;4.35;;
36379;SDS011;22411;53.016;18.632;2024-03-25T13:02:02;5.63;;;4.25;;
36379;SDS011;22411;53.016;18.632;2024-03-25T13:04:28;3.15;;;2.67;;
36379;SDS011;22411;53.016;18.632;2024-03-25T13:06:57;4.80;;;2.75;;
36379;SDS011;22411;53.016;18.632;2024-03-25T13:09:23;3.15;;;2.85;;
36379;SDS011;22411;53.016;18.632;2024-03-25T13:11:48;3.90;;;2.30;;
36379;SDS011;22411;53.016;18.632;2024-03-25T13:14:14;6.25;;;2.83;;
36379;SDS011;22411;53.016;18.632;2024-03-25T13:16:41;4.15;;;3.75;;
36379;SDS011;22411;53.016;18.632;2024-03-25T13:19:07;3.80;;;2.38;;
36379;SDS011;22411;53.016;18.632;2024-03-25T13:21:33;8.57;;;2.70;;
36379;SDS011;22411;53.016;18.632;2024-03-25T13:23:59;4.32;;;2.92;;
36379;SDS011;22411;53.016;18.632;2024-03-25T13:26:28;8.32;;;4.75;;
36379;SDS011;22411;53.016;18.632;2024-03-25T13:28:54;6.63;;;4.35;;
36379;SDS011;22411;53.016;18.632;2024-03-25T13:31:19;4.63;;;2.90;;
36379;SDS011;22411;53.016;18.632;2024-03-25T13:33:45;15.45;;;8.73;;
36379;SDS011;22411;53.016;18.632;2024-03-25T13:36:11;6.57;;;4.45;;
36379;SDS011;22411;53.016;18.632;2024-03-25T13:38:37;6.57;;;3.33;;
36379;SDS011;22411;53.016;18.632;2024-03-25T13:41:02;5.60;;;3.88;;
36379;SDS011;22411;53.016;18.632;2024-03-25T13:43:29;6.40;;;3.72;;
36379;SDS011;22411;53.016;18.632;2024-03-25T13:45:54;5.93;;;3.63;;
36379;SDS011;22411;53.016;18.632;2024-03-25T13:48:20;4.07;;;2.85;;
36379;SDS011;22411;53.016;18.632;2024-03-25T13:50:46;5.35;;;3.42;;
36379;SDS011;22411;53.016;18.632;2024-03-25T13:53:12;4.85;;;2.50;;
36379;SDS011;22411;53.016;18.632;2024-03-25T13:55:37;4.13;;;2.88;;
36379;SDS011;22411;53.016;18.632;2024-03-25T13:58:03;4.03;;;2.75;;
36379;SDS011;22411;53.016;18.632;2024-03-25T14:00:30;4.97;;;3.17;;
36379;SDS011;22411;53.016;18.632;2024-03-25T14:02:57;6.40;;;3.40;;
36379;SDS011;22411;53.016;18.632;2024-03-25T14:05:23;7.80;;;4.95;;
36379;SDS011;22411;53.016;18.632;2024-03-25T14:07:49;14.35;;;9.35;;
36379;SDS011;22411;53.016;18.632;2024-03-25T14:10:15;13.68;;;9.98;;
36379;SDS011;22411;53.016;18.632;2024-03-25T14:12:41;11.10;;;9.40;;